Time;durP1;ratioP1;P1;durP2;ratioP2;P2;SDS_P1;SDS_P2;PMS_P1;PMS_P2;Temp;Humidity;BMP_temperature;BMP_pressure;BME280_temperature;BME280_humidity;BME280_pressure;Samples;Min_cycle;Max_cycle;Signal;HPM_P1;HPM_P2
2021/06/17 00:00:42;;;;;;;5.57;5.07;;;23.10;41.70;;;;;;5052594;28;20486;-86
2021/06/17 00:03:09;;;;;;;4.83;4.53;;;23.00;41.60;;;;;;5053632;28;20441;-85
2021/06/17 00:05:37;;;;;;;5.03;4.63;;;23.10;41.70;;;;;;5053782;28;20466;-86
2021/06/17 00:08:06;;;;;;;4.93;4.40;;;23.10;41.70;;;;;;5054427;28;20455;-86
2021/06/17 00:10:35;;;;;;;5.37;4.87;;;23.00;41.60;;;;;;5053712;28;20499;-85
2021/06/17 00:13:06;;;;;;;4.60;4.20;;;22.90;41.50;;;;;;5056966;28;20482;-85
2021/06/17 00:15:36;;;;;;;4.80;4.40;;;22.90;41.50;;;;;;5057088;28;20456;-85
2021/06/17 00:18:03;;;;;;;5.27;4.77;;;22.90;40.80;;;;;;5058405;28;20457;-83
2021/06/17 00:20:31;;;;;;;7.30;4.60;;;22.90;40.20;;;;;;5058860;28;20423;-84
2021/06/17 00:22:58;;;;;;;5.17;4.23;;;23.00;39.00;;;;;;5058112;28;20421;-84
2021/06/17 00:25:26;;;;;;;4.40;4.03;;;23.10;38.70;;;;;;5057748;28;20475;-86
2021/06/17 00:27:54;;;;;;;5.17;4.77;;;23.10;38.50;;;;;;5057137;28;20463;-84
2021/06/17 00:30:22;;;;;;;4.20;3.73;;;23.10;38.40;;;;;;5049830;28;20442;-85
2021/06/17 00:32:52;;;;;;;4.70;4.20;;;23.00;39.10;;;;;;5040771;28;20444;-86
2021/06/17 00:35:19;;;;;;;4.50;4.10;;;23.00;38.10;;;;;;5054025;28;20505;-84
2021/06/17 00:37:46;;;;;;;6.67;4.93;;;23.30;37.50;;;;;;5058296;28;20416;-85
2021/06/17 00:40:15;;;;;;;5.53;5.03;;;23.20;38.30;;;;;;5058211;28;20434;-84
2021/06/17 00:42:45;;;;;;;4.80;4.37;;;23.10;38.90;;;;;;5057941;28;20442;-84
2021/06/17 00:45:15;;;;;;;5.20;4.70;;;23.10;38.60;;;;;;5058034;28;20440;-84
2021/06/17 00:47:42;;;;;;;8.20;4.33;;;23.00;39.30;;;;;;5058038;28;20446;-84
2021/06/17 00:50:12;;;;;;;4.73;4.33;;;22.90;39.20;;;;;;5058034;28;20445;-84
2021/06/17 00:52:39;;;;;;;5.30;4.37;;;22.80;40.00;;;;;;5057992;28;20402;-84
2021/06/17 00:55:07;;;;;;;4.27;3.87;;;22.70;39.70;;;;;;5057821;28;20509;-83
2021/06/17 00:57:34;;;;;;;4.10;3.80;;;22.60;39.80;;;;;;5057976;28;20463;-84
2021/06/17 01:00:01;;;;;;;4.47;4.17;;;22.60;39.20;;;;;;5057757;28;20468;-85
2021/06/17 01:02:28;;;;;;;4.50;4.10;;;22.70;38.80;;;;;;5057759;28;20442;-84
2021/06/17 01:04:55;;;;;;;4.63;4.23;;;22.70;38.50;;;;;;5057327;28;20438;-85
2021/06/17 01:07:35;;;;;;;4.93;4.47;;;22.70;38.30;;;;;;5057143;28;20435;-85
2021/06/17 01:10:10;;;;;;;8.03;4.57;;;22.70;38.50;;;;;;5046301;28;20438;-86
2021/06/17 01:12:56;;;;;;;5.27;4.77;;;22.70;38.30;;;;;;5052723;28;20422;-86
2021/06/17 01:15:24;;;;;;;4.10;3.80;;;22.60;38.30;;;;;;5057035;28;20482;-84
2021/06/17 01:17:57;;;;;;;5.00;4.43;;;22.50;38.20;;;;;;5057466;28;20469;-85
2021/06/17 01:20:29;;;;;;;4.60;4.20;;;22.50;38.90;;;;;;5057327;28;20462;-83
2021/06/17 01:23:10;;;;;;;5.20;3.80;;;22.50;39.60;;;;;;5056967;28;20442;-83
2021/06/17 01:26:06;;;;;;;4.67;4.27;;;22.50;38.30;;;;;;5056723;28;20481;-86
2021/06/17 01:28:38;;;;;;;5.10;3.80;;;22.40;38.80;;;;;;5043167;28;20449;-84
2021/06/17 01:31:11;;;;;;;3.80;3.50;;;22.40;38.10;;;;;;5046239;28;20447;-85
2021/06/17 01:33:42;;;;;;;5.20;4.23;;;22.50;37.80;;;;;;5036863;28;20491;-86
2021/06/17 01:36:15;;;;;;;4.10;3.70;;;22.50;37.40;;;;;;5037956;28;20541;-85
2021/06/17 01:38:44;;;;;;;4.50;4.10;;;22.60;36.70;;;;;;5038112;28;20451;-85
2021/06/17 01:41:12;;;;;;;4.50;4.20;;;22.70;36.60;;;;;;5040040;28;20523;-85
2021/06/17 01:43:42;;;;;;;5.67;3.33;;;22.70;36.80;;;;;;5040476;28;20435;-85
2021/06/17 01:46:12;;;;;;;4.83;3.50;;;22.60;36.80;;;;;;5050188;28;20512;-85
2021/06/17 01:48:39;;;;;;;4.53;4.00;;;22.60;36.70;;;;;;5057278;28;20428;-84
2021/06/17 01:51:06;;;;;;;4.97;4.47;;;22.50;36.40;;;;;;5057149;28;20474;-85
2021/06/17 01:53:34;;;;;;;4.50;4.20;;;22.60;36.40;;;;;;5050740;28;20473;-86
2021/06/17 01:56:02;;;;;;;4.60;4.20;;;22.60;36.70;;;;;;5041830;28;20537;-84
2021/06/17 01:58:31;;;;;;;4.23;3.63;;;22.50;37.10;;;;;;5057227;28;20466;-83
2021/06/17 02:01:03;;;;;;;4.20;3.50;;;22.40;37.00;;;;;;5052570;28;20421;-85
2021/06/17 02:03:32;;;;;;;3.70;3.23;;;22.40;36.70;;;;;;5055790;28;20417;-84
2021/06/17 02:05:59;;;;;;;4.07;3.77;;;22.40;36.30;;;;;;5051599;28;20452;-85
2021/06/17 02:08:26;;;;;;;4.73;3.50;;;22.50;35.80;;;;;;5043271;28;20485;-85
2021/06/17 02:10:54;;;;;;;3.90;3.60;;;22.50;35.70;;;;;;5043434;28;20501;-86
2021/06/17 02:13:23;;;;;;;3.87;3.57;;;22.50;35.50;;;;;;5041617;28;20433;-85
2021/06/17 02:15:51;;;;;;;5.83;4.13;;;22.60;36.10;;;;;;5035674;28;20509;-85
2021/06/17 02:18:25;;;;;;;3.93;3.43;;;22.60;35.90;;;;;;5035198;28;20482;-85
2021/06/17 02:20:54;;;;;;;5.50;4.23;;;22.70;35.30;;;;;;5035684;28;20511;-86
2021/06/17 02:23:23;;;;;;;7.27;3.67;;;22.70;34.90;;;;;;5036697;28;20519;-86
2021/06/17 02:25:54;;;;;;;4.37;3.70;;;22.70;35.40;;;;;;5040697;28;20465;-84
2021/06/17 02:28:24;;;;;;;4.30;3.90;;;22.60;35.30;;;;;;5056890;28;20438;-83
2021/06/17 02:30:53;;;;;;;4.33;3.83;;;22.50;35.90;;;;;;5057046;28;20414;-84
2021/06/17 02:33:23;;;;;;;4.97;3.83;;;22.50;35.70;;;;;;5056725;28;20462;-84
2021/06/17 02:35:54;;;;;;;4.13;3.80;;;22.40;35.90;;;;;;5056875;28;20428;-84
2021/06/17 02:38:27;;;;;;;4.20;3.90;;;22.40;35.80;;;;;;5057146;28;20400;-84
2021/06/17 02:41:00;;;;;;;5.43;4.03;;;22.40;35.90;;;;;;5052198;28;20439;-87
2021/06/17 02:43:30;;;;;;;4.27;3.87;;;22.40;35.80;;;;;;5039229;28;20872;-84
2021/06/17 02:45:57;;;;;;;4.20;3.80;;;22.40;35.70;;;;;;5038808;28;20471;-86
2021/06/17 02:48:26;;;;;;;6.37;4.00;;;22.50;35.20;;;;;;5038053;28;20488;-86
2021/06/17 02:50:53;;;;;;;5.40;3.10;;;22.50;35.20;;;;;;5038655;28;20901;-86
2021/06/17 02:53:21;;;;;;;3.70;3.40;;;22.50;35.70;;;;;;5038677;28;20486;-85
2021/06/17 02:55:49;;;;;;;5.00;4.13;;;22.30;35.60;;;;;;5038961;28;20504;-87
2021/06/17 02:58:35;;;;;;;3.77;3.47;;;22.20;36.30;;;;;;5037952;28;20405;-83
2021/06/17 03:01:10;;;;;;;4.43;4.00;;;22.10;36.60;;;;;;5039264;28;20462;-85
2021/06/17 03:03:42;;;;;;;4.30;3.90;;;22.00;37.00;;;;;;5037486;28;20458;-85
2021/06/17 03:06:16;;;;;;;7.67;4.33;;;21.90;37.40;;;;;;5051928;28;20475;-85
2021/06/17 03:08:51;;;;;;;5.97;3.90;;;21.80;37.40;;;;;;5038912;28;21074;-85
2021/06/17 03:11:19;;;;;;;5.30;4.20;;;21.80;37.50;;;;;;5039431;28;20460;-86
2021/06/17 03:13:51;;;;;;;4.63;4.00;;;21.80;37.40;;;;;;5045976;28;20425;-85
2021/06/17 03:16:22;;;;;;;6.80;3.37;;;21.80;37.60;;;;;;5056613;28;20462;-84
2021/06/17 03:18:52;;;;;;;4.97;3.83;;;21.80;37.70;;;;;;5057250;28;20401;-85
2021/06/17 03:21:20;;;;;;;4.20;3.80;;;21.70;37.70;;;;;;5056697;28;20460;-85
2021/06/17 03:23:49;;;;;;;4.87;4.20;;;21.70;38.10;;;;;;5056491;28;20473;-84
2021/06/17 03:26:17;;;;;;;4.27;3.87;;;21.70;38.40;;;;;;5045279;28;20453;-85
2021/06/17 03:28:46;;;;;;;4.10;3.57;;;21.70;38.50;;;;;;5042450;28;20861;-85
2021/06/17 03:31:16;;;;;;;14.70;4.20;;;21.70;38.60;;;;;;5041598;28;20525;-84
2021/06/17 03:33:44;;;;;;;6.20;4.03;;;21.60;39.10;;;;;;5041319;28;20449;-84
2021/06/17 03:36:12;;;;;;;5.40;3.83;;;21.70;39.20;;;;;;5042566;28;20589;-84
2021/06/17 03:38:42;;;;;;;3.97;3.67;;;21.70;39.20;;;;;;5042374;28;20457;-84
2021/06/17 03:41:10;;;;;;;3.73;3.43;;;21.60;39.30;;;;;;5043753;28;20466;-85
2021/06/17 03:43:39;;;;;;;5.03;4.10;;;21.60;40.30;;;;;;5043056;28;20458;-85
2021/06/17 03:46:09;;;;;;;4.60;4.20;;;21.60;40.30;;;;;;5044091;28;20481;-85
2021/06/17 03:48:39;;;;;;;5.40;3.60;;;21.60;40.30;;;;;;5042556;28;20433;-85
2021/06/17 03:51:08;;;;;;;4.37;3.60;;;21.90;39.90;;;;;;5047849;28;20438;-85
2021/06/17 03:53:38;;;;;;;5.53;3.73;;;22.00;39.70;;;;;;5048428;28;20454;-85
2021/06/17 03:56:06;;;;;;;4.30;4.00;;;22.00;39.30;;;;;;5050531;28;20489;-84
2021/06/17 03:58:34;;;;;;;4.70;4.13;;;22.10;39.50;;;;;;5052212;28;20442;-84
2021/06/17 04:01:01;;;;;;;5.20;3.97;;;22.00;40.70;;;;;;5052231;28;20425;-84
2021/06/17 04:03:29;;;;;;;12.73;4.73;;;22.00;40.70;;;;;;5047843;28;20994;-82
2021/06/17 04:05:58;;;;;;;5.17;4.67;;;22.00;41.50;;;;;;5043866;28;20808;-83
2021/06/17 04:08:35;;;;;;;5.30;4.90;;;21.90;42.10;;;;;;5042557;28;20533;-83
2021/06/17 04:11:07;;;;;;;5.50;5.00;;;22.00;42.40;;;;;;5048573;28;20430;-84
2021/06/17 04:13:38;;;;;;;6.67;4.93;;;22.00;42.70;;;;;;5053287;28;20429;-84
2021/06/17 04:16:07;;;;;;;5.80;4.53;;;22.00;42.80;;;;;;5051055;28;20918;-83
2021/06/17 04:18:36;;;;;;;5.13;4.60;;;22.10;42.90;;;;;;5041814;28;20424;-84
2021/06/17 04:21:04;;;;;;;5.63;4.67;;;22.20;42.30;;;;;;5042187;28;20425;-83
2021/06/17 04:23:32;;;;;;;5.73;5.23;;;22.20;42.10;;;;;;5040017;28;20970;-83
2021/06/17 04:26:01;;;;;;;8.30;4.70;;;22.30;42.00;;;;;;5041276;28;20452;-83
2021/06/17 04:28:31;;;;;;;5.20;4.83;;;22.50;41.10;;;;;;5040527;28;20419;-83
2021/06/17 04:30:59;;;;;;;4.93;4.53;;;22.70;41.30;;;;;;5044517;28;20445;-84
2021/06/17 04:33:27;;;;;;;5.90;5.27;;;22.40;41.70;;;;;;5053825;28;20457;-82
2021/06/17 04:35:58;;;;;;;6.00;5.40;;;22.30;42.20;;;;;;5053785;28;20471;-83
2021/06/17 04:38:26;;;;;;;7.57;5.20;;;22.30;42.20;;;;;;5054466;28;20492;-83
2021/06/17 04:40:54;;;;;;;5.30;4.80;;;22.20;43.50;;;;;;5054349;28;20469;-84
2021/06/17 04:43:22;;;;;;;5.70;5.10;;;22.20;43.30;;;;;;5056841;28;20446;-86
2021/06/17 04:45:52;;;;;;;7.83;5.47;;;22.50;42.80;;;;;;5056625;28;20470;-84
2021/06/17 04:48:22;;;;;;;6.23;5.67;;;22.70;42.10;;;;;;5051739;28;20516;-84
2021/06/17 04:50:49;;;;;;;5.40;5.00;;;23.40;42.00;;;;;;5055775;28;20419;-83
2021/06/17 04:53:17;;;;;;;5.50;4.80;;;24.50;39.00;;;;;;5057050;28;20515;-84
2021/06/17 04:55:48;;;;;;;5.00;4.60;;;25.50;36.30;;;;;;5055478;28;20515;-83
2021/06/17 04:58:15;;;;;;;8.83;4.83;;;26.60;34.20;;;;;;5057265;28;20446;-85
2021/06/17 05:00:42;;;;;;;5.13;3.87;;;27.60;31.20;;;;;;5056657;28;20452;-83
2021/06/17 05:03:11;;;;;;;5.00;4.23;;;28.50;29.50;;;;;;5053735;28;20468;-83
2021/06/17 05:05:38;;;;;;;9.23;4.43;;;29.20;28.30;;;;;;5055412;28;20497;-84
2021/06/17 05:10:52;;;;;;;5.70;4.20;;;29.90;26.90;;;;;;5049816;28;20441;-84
2021/06/17 05:13:21;;;;;;;3.83;3.53;;;30.10;25.40;;;;;;5051196;28;20484;-83
2021/06/17 05:15:48;;;;;;;13.47;4.40;;;30.30;24.90;;;;;;5050196;28;20492;-83
2021/06/17 05:18:18;;;;;;;4.50;3.63;;;29.00;26.40;;;;;;5043859;28;20453;-83
2021/06/17 05:20:46;;;;;;;4.53;3.63;;;29.90;25.30;;;;;;5038012;28;20515;-84
2021/06/17 05:23:16;;;;;;;4.47;4.07;;;30.30;24.40;;;;;;5036549;28;21008;-83
2021/06/17 05:25:44;;;;;;;5.93;4.20;;;30.40;24.30;;;;;;5039797;28;20982;-84
2021/06/17 05:28:13;;;;;;;5.70;4.20;;;30.50;24.50;;;;;;5050178;28;20944;-84
2021/06/17 05:30:41;;;;;;;7.37;4.00;;;30.50;23.90;;;;;;5046259;28;20461;-83
2021/06/17 05:33:08;;;;;;;4.77;3.60;;;31.50;22.90;;;;;;5048787;28;20456;-84
2021/06/17 05:35:36;;;;;;;5.83;4.30;;;32.10;21.80;;;;;;5055734;28;20554;-83
2021/06/17 05:38:05;;;;;;;5.03;3.13;;;32.50;20.80;;;;;;5053250;28;20452;-83
2021/06/17 05:40:32;;;;;;;7.63;4.00;;;32.80;20.00;;;;;;5052305;28;20438;-84
2021/06/17 05:42:59;;;;;;;4.17;3.40;;;31.80;22.10;;;;;;5056881;28;20468;-84
2021/06/17 05:45:26;;;;;;;6.80;3.83;;;31.60;21.70;;;;;;5057015;28;20533;-83
2021/06/17 05:47:53;;;;;;;6.30;3.80;;;29.70;24.70;;;;;;5057055;28;20528;-82
2021/06/17 05:50:20;;;;;;;5.00;3.70;;;29.70;24.70;;;;;;5036532;28;20462;-80
2021/06/17 05:52:49;;;;;;;4.80;4.20;;;30.90;23.30;;;;;;5023736;28;20837;-82
2021/06/17 05:55:16;;;;;;;4.13;3.70;;;32.10;21.40;;;;;;5033600;28;20577;-83
2021/06/17 05:57:43;;;;;;;5.47;4.30;;;32.20;20.90;;;;;;5046791;28;20450;-83
2021/06/17 06:00:11;;;;;;;3.73;3.43;;;32.00;21.20;;;;;;5028770;28;20474;-81
2021/06/17 06:02:38;;;;;;;7.10;4.10;;;31.80;21.80;;;;;;5029376;28;20486;-81
2021/06/17 06:05:07;;;;;;;5.10;4.03;;;32.10;21.20;;;;;;5021602;28;20451;-83
2021/06/17 06:07:34;;;;;;;4.90;4.27;;;31.40;22.50;;;;;;5022497;28;20882;-84
2021/06/17 06:10:03;;;;;;;4.80;4.10;;;31.80;22.00;;;;;;5040708;28;20461;-83
2021/06/17 06:12:30;;;;;;;5.77;4.47;;;32.20;21.50;;;;;;5043013;28;20441;-85
2021/06/17 06:14:57;;;;;;;6.53;4.00;;;32.80;20.40;;;;;;5044147;28;20489;-83
2021/06/17 06:17:24;;;;;;;5.10;4.60;;;33.30;20.30;;;;;;5047503;28;20509;-84
2021/06/17 06:19:51;;;;;;;6.67;3.93;;;33.00;20.20;;;;;;5050008;28;20493;-83
2021/06/17 06:22:18;;;;;;;7.50;4.33;;;32.80;20.00;;;;;;5051716;28;20454;-83
2021/06/17 06:24:45;;;;;;;5.30;3.87;;;32.60;20.40;;;;;;5055819;28;20437;-84
2021/06/17 06:27:14;;;;;;;5.40;3.67;;;32.60;20.80;;;;;;5055522;28;20497;-84
2021/06/17 06:29:41;;;;;;;5.53;4.20;;;32.80;20.60;;;;;;5056319;28;20453;-83
2021/06/17 06:32:09;;;;;;;6.80;4.40;;;33.10;20.20;;;;;;5046983;28;20467;-84
2021/06/17 06:34:36;;;;;;;7.10;4.50;;;32.60;21.00;;;;;;5034122;28;20450;-82
2021/06/17 06:37:04;;;;;;;6.67;4.33;;;32.20;21.70;;;;;;5023536;28;20505;-82
2021/06/17 06:39:31;;;;;;;6.63;4.47;;;32.60;20.70;;;;;;5023651;28;20450;-82
2021/06/17 06:41:58;;;;;;;5.90;4.67;;;32.20;21.40;;;;;;5032409;28;20462;-82
2021/06/17 06:44:26;;;;;;;7.00;4.47;;;31.90;22.30;;;;;;5028495;28;20526;-85
2021/06/17 06:46:55;;;;;;;4.87;4.40;;;32.50;19.90;;;;;;5038662;28;20469;-85
2021/06/17 06:49:22;;;;;;;6.10;4.97;;;32.80;20.00;;;;;;5042972;28;20453;-84
2021/06/17 06:51:49;;;;;;;9.83;5.17;;;32.60;19.90;;;;;;5043389;28;20454;-86
2021/06/17 06:54:18;;;;;;;6.47;4.80;;;32.40;20.70;;;;;;5043763;28;20957;-86
2021/06/17 06:56:46;;;;;;;9.37;5.33;;;32.20;21.00;;;;;;5042130;28;20544;-87
2021/06/17 06:59:13;;;;;;;8.50;4.73;;;32.50;20.60;;;;;;5039737;28;20478;-87
2021/06/17 07:01:41;;;;;;;5.67;5.10;;;32.50;20.90;;;;;;5046618;28;20512;-85
2021/06/17 07:04:08;;;;;;;9.00;5.13;;;32.30;21.10;;;;;;5055982;28;20434;-87
2021/06/17 07:06:36;;;;;;;6.73;5.60;;;31.80;21.60;;;;;;5051942;28;20474;-85
2021/06/17 07:09:03;;;;;;;8.27;6.70;;;30.80;23.20;;;;;;5053383;28;20442;-82
2021/06/17 07:11:31;;;;;;;11.40;6.40;;;30.10;24.40;;;;;;5051300;28;20560;-83
2021/06/17 07:13:58;;;;;;;5.57;5.17;;;29.50;25.80;;;;;;5051030;28;20446;-83
2021/06/17 07:16:26;;;;;;;9.90;9.00;;;29.10;26.50;;;;;;5050886;28;20505;-83
2021/06/17 07:18:55;;;;;;;10.37;6.67;;;29.00;26.40;;;;;;5051951;28;20486;-84
2021/06/17 07:21:25;;;;;;;8.17;6.77;;;28.90;26.90;;;;;;5050836;28;20443;-84
2021/06/17 07:23:53;;;;;;;9.17;7.10;;;28.80;27.50;;;;;;5047165;28;20462;-84
2021/06/17 07:26:26;;;;;;;10.00;6.33;;;28.60;28.20;;;;;;5039306;28;20477;-86
2021/06/17 07:28:55;;;;;;;6.60;6.00;;;28.40;27.80;;;;;;5043550;28;20462;-86
2021/06/17 07:31:23;;;;;;;6.30;5.70;;;28.40;27.80;;;;;;5048635;28;20437;-85
2021/06/17 07:33:50;;;;;;;6.80;6.10;;;28.50;27.70;;;;;;5051750;28;20443;-88
2021/06/17 07:36:21;;;;;;;7.90;6.60;;;28.70;27.90;;;;;;5058264;28;20497;-90
2021/06/17 07:38:48;;;;;;;7.40;6.20;;;28.80;28.00;;;;;;5058954;28;20429;-88
2021/06/17 07:41:15;;;;;;;11.03;6.70;;;28.70;28.20;;;;;;5053511;28;20440;-85
2021/06/17 07:43:42;;;;;;;9.80;6.30;;;28.60;28.30;;;;;;5044359;28;20948;-85
2021/06/17 07:46:09;;;;;;;9.30;6.83;;;28.60;28.70;;;;;;5045729;28;20533;-86
2021/06/17 07:48:38;;;;;;;7.30;5.70;;;28.70;28.30;;;;;;5055077;28;20416;-87
2021/06/17 07:51:07;;;;;;;6.73;6.10;;;28.80;28.10;;;;;;5056221;28;20452;-85
2021/06/17 07:53:36;;;;;;;8.83;5.90;;;28.90;27.80;;;;;;5129581;23;20488;-86
2021/06/17 07:56:04;;;;;;;7.90;6.00;;;28.90;28.00;;;;;;5057522;28;20553;-86
2021/06/17 07:58:31;;;;;;;5.97;5.30;;;29.10;28.40;;;;;;5050167;28;20457;-87
2021/06/17 08:00:58;;;;;;;6.10;5.50;;;29.20;27.90;;;;;;5041916;28;20435;-87
2021/06/17 08:03:25;;;;;;;5.97;5.50;;;29.30;27.80;;;;;;5042093;28;20468;-86
2021/06/17 08:05:52;;;;;;;9.00;5.97;;;29.40;27.60;;;;;;5042618;28;20485;-86
2021/06/17 08:08:19;;;;;;;9.77;5.70;;;29.30;28.30;;;;;;5044193;28;20439;-86
2021/06/17 08:10:48;;;;;;;6.37;5.83;;;29.30;27.10;;;;;;5051293;28;20459;-86
2021/06/17 08:13:16;;;;;;;7.00;6.20;;;29.30;26.60;;;;;;5051018;28;20530;-85
2021/06/17 08:15:44;;;;;;;6.07;5.47;;;29.40;26.70;;;;;;5048681;28;20493;-85
2021/06/17 08:18:11;;;;;;;6.93;6.37;;;29.40;26.70;;;;;;5052748;28;20469;-85
2021/06/17 08:20:38;;;;;;;7.53;6.00;;;29.40;26.70;;;;;;5056782;28;20442;-84
2021/06/17 08:23:05;;;;;;;5.90;5.37;;;29.40;26.70;;;;;;5056501;28;20485;-84
2021/06/17 08:25:33;;;;;;;6.37;5.77;;;29.70;26.50;;;;;;5060478;23;20460;-83
2021/06/17 08:30:43;;;;;;;9.63;6.40;;;30.00;26.20;;;;;;5070840;23;20484;-85
2021/06/17 08:33:13;;;;;;;5.97;5.40;;;30.00;26.10;;;;;;5057808;28;20460;-84
2021/06/17 08:35:40;;;;;;;7.10;6.40;;;30.20;26.40;;;;;;5057388;28;20476;-86
2021/06/17 08:38:12;;;;;;;6.50;5.90;;;30.50;26.10;;;;;;5044038;28;20515;-86
2021/06/17 08:40:40;;;;;;;8.50;6.43;;;30.80;25.70;;;;;;5026193;28;20818;-85
2021/06/17 08:43:07;;;;;;;11.23;5.80;;;31.00;24.70;;;;;;5029985;28;20931;-86
2021/06/17 08:45:34;;;;;;;8.67;6.33;;;30.80;24.80;;;;;;5029172;28;20477;-85
2021/06/17 08:48:02;;;;;;;8.13;5.97;;;30.80;25.30;;;;;;5009120;28;20950;-84
2021/06/17 08:50:32;;;;;;;7.03;5.40;;;31.10;24.70;;;;;;5026403;28;20466;-85
2021/06/17 08:53:02;;;;;;;6.50;5.90;;;31.10;24.50;;;;;;5057593;28;20457;-85
2021/06/17 08:55:30;;;;;;;6.80;5.83;;;30.90;25.00;;;;;;5056510;28;20440;-83
2021/06/17 08:57:58;;;;;;;9.10;5.37;;;31.10;24.80;;;;;;5039917;28;20469;-83
2021/06/17 09:00:37;;;;;;;7.20;6.60;;;31.30;24.60;;;;;;5029117;28;20459;-85
2021/06/17 09:03:08;;;;;;;7.73;6.87;;;31.40;24.50;;;;;;5018136;28;20432;-84
2021/06/17 09:05:38;;;;;;;7.07;6.40;;;31.40;24.60;;;;;;5017885;28;20510;-85
2021/06/17 09:08:07;;;;;;;7.50;6.90;;;31.30;25.40;;;;;;5005834;28;20831;-86
2021/06/17 09:10:35;;;;;;;6.70;6.20;;;31.30;24.90;;;;;;5001869;28;20523;-86
2021/06/17 09:13:04;;;;;;;7.90;7.10;;;31.40;25.20;;;;;;5004485;28;20579;-85
2021/06/17 09:15:34;;;;;;;6.87;6.17;;;31.30;25.20;;;;;;5017603;28;20483;-84
2021/06/17 09:18:17;;;;;;;6.87;6.30;;;31.20;25.40;;;;;;5039051;28;20461;-85
2021/06/17 09:20:49;;;;;;;8.33;6.87;;;31.20;25.50;;;;;;5030444;28;20471;-83
2021/06/17 09:23:46;;;;;;;8.17;7.30;;;31.10;25.70;;;;;;5015949;28;20432;-85
2021/06/17 09:26:18;;;;;;;7.40;6.70;;;31.10;25.80;;;;;;5015707;28;20465;-85
2021/06/17 09:28:54;;;;;;;8.30;7.60;;;31.10;25.90;;;;;;5017778;28;20467;-86
2021/06/17 09:31:23;;;;;;;8.20;7.27;;;31.20;25.80;;;;;;5018149;28;20463;-86
2021/06/17 09:33:53;;;;;;;7.60;7.00;;;31.40;25.20;;;;;;5017839;28;20422;-85
2021/06/17 09:36:24;;;;;;;7.70;7.10;;;31.50;24.70;;;;;;5036222;28;20497;-84
2021/06/17 09:38:52;;;;;;;10.40;6.97;;;31.60;23.90;;;;;;5120852;23;20496;-79
2021/06/17 09:41:34;;;;;;;7.57;6.90;;;31.60;24.50;;;;;;5033710;28;21022;-80
2021/06/17 09:44:01;;;;;;;6.80;6.17;;;31.90;23.80;;;;;;5035703;28;20537;-79
2021/06/17 09:46:28;;;;;;;6.20;5.70;;;31.90;22.90;;;;;;5040123;28;20470;-81
2021/06/17 09:49:04;;;;;;;6.30;5.80;;;32.10;22.70;;;;;;5055097;28;20473;-79
2021/06/17 09:51:38;;;;;;;6.37;5.73;;;32.30;22.60;;;;;;5050267;28;20453;-82
2021/06/17 09:54:18;;;;;;;8.27;5.80;;;32.50;22.70;;;;;;5060444;28;20481;-82
2021/06/17 09:56:50;;;;;;;10.70;5.70;;;32.20;22.70;;;;;;5042389;28;20564;-79
2021/06/17 09:59:39;;;;;;;6.60;5.87;;;32.40;22.70;;;;;;5043420;28;20442;-81
2021/06/17 10:02:08;;;;;;;5.90;5.50;;;32.40;22.70;;;;;;5042556;28;20454;-79
2021/06/17 10:04:37;;;;;;;6.50;5.90;;;32.30;22.30;;;;;;5042309;28;20457;-79
2021/06/17 10:07:06;;;;;;;6.63;5.37;;;32.50;21.80;;;;;;5043046;28;20501;-79
2021/06/17 10:09:33;;;;;;;9.77;6.50;;;32.60;21.70;;;;;;5042088;28;20464;-80
2021/06/17 10:12:01;;;;;;;8.17;6.10;;;32.50;22.00;;;;;;5020862;28;20454;-79
2021/06/17 10:14:29;;;;;;;6.10;5.60;;;32.10;22.60;;;;;;5026561;28;20521;-79
2021/06/17 10:16:58;;;;;;;8.73;6.00;;;32.40;22.30;;;;;;5039856;28;20558;-79
2021/06/17 10:19:25;;;;;;;9.37;6.47;;;32.40;21.90;;;;;;5040661;28;20465;-79
2021/06/17 10:21:53;;;;;;;7.10;5.97;;;32.30;22.30;;;;;;5040438;28;20458;-79
2021/06/17 10:24:22;;;;;;;6.90;6.30;;;32.50;21.80;;;;;;5044342;28;20453;-80
2021/06/17 10:26:51;;;;;;;5.80;5.30;;;32.50;21.40;;;;;;5042503;28;20450;-78
2021/06/17 10:29:35;;;;;;;7.20;6.50;;;32.50;21.90;;;;;;5040762;28;20453;-81
2021/06/17 10:32:03;;;;;;;8.87;6.30;;;32.80;21.50;;;;;;5039619;28;20476;-79
2021/06/17 10:34:37;;;;;;;5.97;5.50;;;32.90;21.00;;;;;;5037984;28;20628;-79
2021/06/17 10:37:20;;;;;;;6.27;5.77;;;32.70;21.50;;;;;;5037849;28;20525;-79
2021/06/17 10:39:50;;;;;;;6.43;5.83;;;32.40;22.20;;;;;;5042117;28;20489;-80
2021/06/17 10:42:55;;;;;;;7.07;6.57;;;32.50;21.50;;;;;;5033798;28;20485;-80
2021/06/17 10:45:37;;;;;;;7.80;7.10;;;32.80;21.10;;;;;;5032451;28;20472;-80
2021/06/17 10:48:09;;;;;;;7.47;6.87;;;32.00;22.70;;;;;;5041537;28;20986;-79
2021/06/17 10:50:48;;;;;;;8.50;6.80;;;32.20;22.40;;;;;;5041071;28;20434;-81
2021/06/17 10:53:28;;;;;;;7.40;6.80;;;32.40;22.30;;;;;;5042433;28;20434;-79
2021/06/17 10:55:59;;;;;;;6.83;6.33;;;32.90;21.70;;;;;;5041315;28;20523;-79
2021/06/17 10:59:02;;;;;;;7.70;7.00;;;33.30;20.70;;;;;;5041901;28;20477;-80
2021/06/17 11:01:44;;;;;;;7.33;6.80;;;33.50;20.40;;;;;;5042118;28;20847;-79
2021/06/17 11:04:33;;;;;;;9.17;7.63;;;33.30;21.10;;;;;;5046185;28;20484;-80
2021/06/17 11:07:21;;;;;;;9.80;7.50;;;33.40;21.30;;;;;;5047238;28;20488;-80
2021/06/17 11:10:02;;;;;;;8.03;7.43;;;33.60;21.10;;;;;;5019812;28;20807;-80
2021/06/17 11:13:00;;;;;;;9.60;7.03;;;33.50;21.30;;;;;;5024890;28;20473;-80
2021/06/17 11:15:46;;;;;;;10.03;7.60;;;33.50;20.40;;;;;;5039973;28;20442;-80
2021/06/17 11:18:14;;;;;;;7.60;7.00;;;33.50;21.30;;;;;;5043043;28;20478;-84
2021/06/17 11:20:43;;;;;;;8.57;7.77;;;33.90;20.70;;;;;;5051358;28;20435;-79
2021/06/17 11:23:10;;;;;;;7.47;6.90;;;34.20;20.80;;;;;;5041896;28;20458;-80
2021/06/17 11:25:45;;;;;;;8.43;7.63;;;34.20;20.80;;;;;;5039815;28;20432;-80
2021/06/17 11:28:14;;;;;;;9.83;7.17;;;33.80;20.60;;;;;;5046581;28;20499;-80
2021/06/17 11:31:03;;;;;;;7.60;7.00;;;34.00;21.00;;;;;;5042772;28;20952;-81
2021/06/17 11:33:45;;;;;;;8.50;7.40;;;34.20;21.40;;;;;;5039587;28;20497;-80
2021/06/17 11:36:18;;;;;;;10.47;7.70;;;34.10;20.80;;;;;;5027094;28;20466;-79
2021/06/17 11:38:48;;;;;;;8.20;7.47;;;34.00;20.70;;;;;;5038242;28;20478;-81
2021/06/17 11:41:22;;;;;;;7.40;6.90;;;34.00;20.70;;;;;;5040045;28;20461;-81
2021/06/17 11:43:58;;;;;;;8.40;7.13;;;34.30;20.90;;;;;;5038647;28;20450;-82
2021/06/17 11:46:30;;;;;;;7.47;6.87;;;34.40;19.90;;;;;;5040082;28;20457;-81
2021/06/17 11:49:01;;;;;;;8.50;7.13;;;34.50;19.50;;;;;;5037556;28;20516;-80
2021/06/17 11:51:39;;;;;;;8.67;7.67;;;34.50;19.80;;;;;;5037823;28;20543;-80
2021/06/17 11:54:06;;;;;;;8.50;7.70;;;34.70;20.00;;;;;;5042851;28;20488;-81
2021/06/17 11:56:35;;;;;;;9.00;8.10;;;34.70;20.80;;;;;;5046257;28;20489;-78
2021/06/17 11:59:22;;;;;;;8.97;7.50;;;34.60;21.00;;;;;;5049308;28;20470;-80
2021/06/17 12:02:12;;;;;;;9.73;8.80;;;34.40;20.90;;;;;;5058508;28;20445;-85
2021/06/17 12:04:44;;;;;;;8.93;8.23;;;34.40;20.90;;;;;;5056486;28;20449;-82
2021/06/17 12:07:12;;;;;;;8.13;7.47;;;34.40;21.20;;;;;;5045809;28;20455;-83
2021/06/17 12:09:39;;;;;;;8.77;7.93;;;34.20;22.20;;;;;;5051085;28;20474;-80
2021/06/17 12:12:19;;;;;;;8.77;7.97;;;34.40;22.10;;;;;;5045455;28;20818;-79
2021/06/17 12:14:47;;;;;;;10.63;8.10;;;34.10;22.70;;;;;;5050137;28;20458;-81
2021/06/17 12:17:27;;;;;;;12.07;8.40;;;33.90;22.50;;;;;;5050825;28;20494;-80
2021/06/17 12:19:55;;;;;;;8.77;7.97;;;33.70;22.10;;;;;;5050935;28;20560;-81
2021/06/17 12:22:22;;;;;;;10.07;8.30;;;33.70;22.10;;;;;;5051623;28;20446;-81
2021/06/17 12:24:50;;;;;;;9.27;8.10;;;33.80;21.40;;;;;;5052404;28;20473;-79
2021/06/17 12:27:19;;;;;;;8.60;7.90;;;34.10;20.80;;;;;;5052243;28;20456;-79
2021/06/17 12:29:47;;;;;;;9.30;8.33;;;34.30;20.90;;;;;;5052318;28;20641;-80
2021/06/17 12:32:14;;;;;;;8.90;8.10;;;34.60;20.70;;;;;;5050105;28;20462;-80
2021/06/17 12:34:44;;;;;;;8.90;8.10;;;34.70;20.20;;;;;;5043752;28;20434;-81
2021/06/17 12:37:12;;;;;;;8.40;7.67;;;34.60;20.30;;;;;;5041977;28;20556;-82
2021/06/17 12:39:41;;;;;;;8.00;7.37;;;34.60;21.00;;;;;;5043239;28;20485;-79
2021/06/17 12:42:11;;;;;;;8.37;7.67;;;34.70;20.40;;;;;;5049145;28;20480;-79
2021/06/17 12:44:40;;;;;;;8.83;7.43;;;34.70;19.80;;;;;;5051148;28;20441;-78
2021/06/17 12:47:12;;;;;;;8.10;7.40;;;34.70;18.10;;;;;;5055374;28;20528;-80
2021/06/17 12:52:29;;;;;;;8.43;7.53;;;34.60;20.10;;;;;;5048308;28;20472;-81
2021/06/17 12:54:57;;;;;;;9.60;7.70;;;34.60;19.40;;;;;;5051336;28;20469;-81
2021/06/17 12:57:26;;;;;;;7.57;6.97;;;34.30;20.20;;;;;;5044288;28;20494;-80
2021/06/17 12:59:55;;;;;;;8.40;7.50;;;33.90;21.30;;;;;;5039984;28;20454;-81
2021/06/17 13:02:46;;;;;;;8.43;7.63;;;34.10;20.80;;;;;;5039799;28;20462;-82
2021/06/17 13:05:16;;;;;;;8.50;7.87;;;34.00;20.70;;;;;;5041404;28;20468;-80
2021/06/17 13:08:00;;;;;;;7.97;7.20;;;34.00;20.70;;;;;;5041745;28;20573;-79
2021/06/17 13:10:28;;;;;;;8.50;7.70;;;34.10;20.80;;;;;;5047710;28;20597;-81